My Meet Scores
Chloe Johnson, Phenom Gymnastics - MyMeetScores.com
Top100 | Top Teams | Upcoming Meets | Completed Meets | Latest | Add Scores | Help| Support | Bookmark and Share

Chloe Johnson, Phenom Gymnastics
Personal Bests
LevelVault BarsBeamFloorAA
39.2509.250 9.1759.32536.650
49.1259.575 9.3759.15036.975
59.3509.675 8.8759.30036.825
79.5009.700 9.6009.60037.975
89.4009.775 9.4759.42538.075
Meet Scores
Date Meet Team Session Level Division Vault Bars Beam Floor AA
2019-03-29 Illinois Level 7 & 8 State Meet Phenom Gymnastics 2 8 Jr B 9.400 3 9.775 3T 9.475 10 9.425 9T 38.075 6
2019-03-01 NGCD Academy's 2019 Flip'r Invitational Phenom Gymnastics 4 8 Jr A 9.125 3 9.475 2 9.225 3 9.050 7T 36.875 3
2019-02-23 Kinetic Classic 2019 Phenom Gymnastics 1 8 Younger 8.775 297T 9.550 23T 9.200 159* 9.200 152* 36.725 83T
2019-02-01 The Big Chill Phenom Gymnastics 2 8 12 yr olds 0.000 7T 9.200 3 9.050 5 8.975 5 35.025 4
2019-01-18 2019 Bravo Classic Phenom Gymnastics 5A 8 Child 8.025 16 9.400 5 8.550 14 9.025 14T 35.000 13
2018-03-23 Illinois Level 7 & 8 State Competition Phenom Gymnastics 10 7 Ch C 9.400 12 9.175 16 9.600 8 9.375 14 37.550 12
2018-03-02 2018 Flip'r Invitational Phenom Gymnastics 2 7 Jr A Age 11 9.000 7 9.525 4 9.600 2 9.600 2 37.725 3
2018-02-01 The Big Chill Phenom Gymnastics 5 7 10 11 yr 9.500 3T 9.050 5T 9.450 7T 9.525 1 37.525 2
2018-01-19 2018 Bravo Classic Phenom Gymnastics 4A 7 Child 9.425 6T 9.500 3 9.550 1 9.500 2T 37.975 1
2018-01-12 St Jude Benefit Meet Phenom Gymnastics 8B 7 JrA 9.450 8T 9.400 2T 9.375 5 9.275 7T 37.500 5
2017-12-15 2017 Aspire Classic Phenom Gymnastics 2 7 Jr A 9.225 15 9.700 3T 8.700 15T 9.350 11T 36.975 12
2017-12-08 MEGA Magic Classic 2017 Phenom Gymnastics 2B 7 Jr A 8.650 12 9.400 6 9.125 11 9.225 7 36.400 6
2017-03-10 Lucky Invitational Phenom Gymnastics A08 5 Jr A 9.350 3 9.300 4 8.875 9 9.300 2T 36.825 5
2017-02-17 Big Classic Phenom Gymnastics B 5 Child A 9.350 3 9.250 10T 8.800 17 9.200 11 36.600 9
2017-01-20 2017 Bravo Classic Phenom Gymnastics 04B 5 10yrs 9.150 17T 9.325 4 8.875 11 9.050 10T 36.400 9
2016-12-16 2016 Aspire Classic Phenom Gymnastics 3 5 Younger 9.175 6T 9.675 1 7.950 12 8.900 8 35.700 5T
2016-03-10 2016 Illinois Level 4 State Meet Phenom Gymnastics All 4 Child-F 9.125 10 9.325 8 9.375 6 9.150 7 36.975 6
2016-02-20 Big Classic Phenom Gymnastics 2B 4 Child A 8.900 8 9.325 3 8.600 18T 8.925 12T 35.750 12
2016-01-15 2016 Bravo Classic Phenom Gymnastics 14A 4 9yrs 8.550 10T 9.575 1 9.200 6T 9.000 11T 36.325 5
2015-12-11 St. Nick Invite Phenom Gymnastics 5A 4 Child 8.400 10 8.450 6T 9.050 10 8.675 8T 34.575 7
2015-03-12 2015 Illinois Level 3 State Championship Phenom Gymnastics All 3 Youth-A 9.075 25 9.250 9 9.000 20 9.325 11 36.650 14
2015-03-05 Spring Hill Elgin Invitational Phenom Gymnastics 3B 3 CHILD 9.250 30T 8.750 39T 9.175 8T 9.250 20T 36.425 17
2014-12-12 2014 MEGA Magic Classic Phenom Gymnastics 1 3 Child A 8.775 17T 8.875 3 8.550 8 8.950 9T 35.150 5
Get your scores on
a t-shirt, pin, or hoodie

www.lazysuits.com